sensor_id;sensor_type;location;lat;lon;timestamp;pressure;altitude;pressure_sealevel;temperature;humidity
706;BME280;21234;48.690;9.016;2023-03-20T00:00:17;96328.63;;;7.42;100.00
706;BME280;21234;48.690;9.016;2023-03-20T00:02:46;96326.97;;;7.41;100.00
706;BME280;21234;48.690;9.016;2023-03-20T00:05:18;96325.22;;;7.47;100.00
706;BME280;21234;48.690;9.016;2023-03-20T00:07:46;96327.88;;;7.35;100.00
706;BME280;21234;48.690;9.016;2023-03-20T00:10:14;96328.63;;;7.42;100.00
706;BME280;21234;48.690;9.016;2023-03-20T00:12:41;96324.13;;;7.36;100.00
706;BME280;21234;48.690;9.016;2023-03-20T00:15:26;96324.81;;;7.31;100.00
706;BME280;21234;48.690;9.016;2023-03-20T00:17:55;96318.66;;;7.24;100.00
706;BME280;21234;48.690;9.016;2023-03-20T00:20:23;96317.97;;;7.29;100.00
706;BME280;21234;48.690;9.016;2023-03-20T00:22:50;96324.66;;;7.26;100.00
706;BME280;21234;48.690;9.016;2023-03-20T00:25:19;96330.59;;;7.35;100.00
706;BME280;21234;48.690;9.016;2023-03-20T00:27:47;96327.34;;;7.26;100.00
706;BME280;21234;48.690;9.016;2023-03-20T00:30:23;96326.91;;;7.29;100.00
706;BME280;21234;48.690;9.016;2023-03-20T00:32:51;96325.41;;;7.33;100.00
706;BME280;21234;48.690;9.016;2023-03-20T00:35:22;96327.97;;;7.28;100.00
706;BME280;21234;48.690;9.016;2023-03-20T00:37:50;96328.47;;;7.37;100.00
706;BME280;21234;48.690;9.016;2023-03-20T00:40:18;96327.28;;;7.33;100.00
706;BME280;21234;48.690;9.016;2023-03-20T00:42:46;96331.72;;;7.27;100.00
706;BME280;21234;48.690;9.016;2023-03-20T00:45:17;96331.41;;;7.35;100.00
706;BME280;21234;48.690;9.016;2023-03-20T00:47:46;96336.50;;;7.44;100.00
706;BME280;21234;48.690;9.016;2023-03-20T00:50:16;96331.56;;;7.40;100.00
706;BME280;21234;48.690;9.016;2023-03-20T00:52:44;96338.47;;;7.36;100.00
706;BME280;21234;48.690;9.016;2023-03-20T00:55:11;96329.56;;;7.48;100.00
706;BME280;21234;48.690;9.016;2023-03-20T00:57:43;96333.69;;;7.50;100.00
706;BME280;21234;48.690;9.016;2023-03-20T01:00:20;96338.66;;;7.53;100.00
706;BME280;21234;48.690;9.016;2023-03-20T01:02:50;96333.69;;;7.50;100.00
706;BME280;21234;48.690;9.016;2023-03-20T01:05:17;96333.47;;;7.52;100.00
706;BME280;21234;48.690;9.016;2023-03-20T01:07:45;96334.28;;;7.52;100.00
706;BME280;21234;48.690;9.016;2023-03-20T01:10:13;96340.53;;;7.53;100.00
706;BME280;21234;48.690;9.016;2023-03-20T01:12:41;96335.75;;;7.36;100.00
706;BME280;21234;48.690;9.016;2023-03-20T01:15:17;96336.72;;;7.42;100.00
706;BME280;21234;48.690;9.016;2023-03-20T01:17:44;96334.03;;;7.42;100.00
706;BME280;21234;48.690;9.016;2023-03-20T01:20:14;96336.06;;;7.47;100.00
706;BME280;21234;48.690;9.016;2023-03-20T01:22:41;96330.97;;;7.50;100.00
706;BME280;21234;48.690;9.016;2023-03-20T01:25:10;96336.88;;;7.47;100.00
706;BME280;21234;48.690;9.016;2023-03-20T01:27:37;96335.09;;;7.41;100.00
706;BME280;21234;48.690;9.016;2023-03-20T01:30:15;96336.38;;;7.38;100.00
706;BME280;21234;48.690;9.016;2023-03-20T01:32:42;96329.91;;;7.39;100.00
706;BME280;21234;48.690;9.016;2023-03-20T01:35:15;96335.31;;;7.39;100.00
706;BME280;21234;48.690;9.016;2023-03-20T01:37:43;96340.56;;;7.34;100.00
706;BME280;21234;48.690;9.016;2023-03-20T01:40:24;96330.59;;;7.35;100.00
706;BME280;21234;48.690;9.016;2023-03-20T01:42:54;96341.72;;;7.27;100.00
706;BME280;21234;48.690;9.016;2023-03-20T01:45:23;96331.88;;;7.32;100.00
706;BME280;21234;48.690;9.016;2023-03-20T01:47:51;96335.41;;;7.33;100.00
706;BME280;21234;48.690;9.016;2023-03-20T01:50:21;96336.06;;;7.28;100.00
706;BME280;21234;48.690;9.016;2023-03-20T01:52:50;96333.44;;;7.22;100.00
706;BME280;21234;48.690;9.016;2023-03-20T01:55:19;96337.50;;;7.31;100.00
706;BME280;21234;48.690;9.016;2023-03-20T01:57:49;96340.13;;;7.19;100.00
706;BME280;21234;48.690;9.016;2023-03-20T02:00:19;96342.94;;;7.13;100.00
706;BME280;21234;48.690;9.016;2023-03-20T02:02:47;96349.63;;;7.10;100.00
706;BME280;21234;48.690;9.016;2023-03-20T02:05:16;96347.53;;;7.12;100.00
706;BME280;21234;48.690;9.016;2023-03-20T02:07:46;96344.81;;;7.12;100.00
706;BME280;21234;48.690;9.016;2023-03-20T02:10:17;96353.59;;;7.07;100.00
706;BME280;21234;48.690;9.016;2023-03-20T02:12:44;96356.53;;;7.06;100.00
706;BME280;21234;48.690;9.016;2023-03-20T02:15:14;96359.50;;;7.16;100.00
706;BME280;21234;48.690;9.016;2023-03-20T02:17:42;96360.56;;;7.15;100.00
706;BME280;21234;48.690;9.016;2023-03-20T02:20:18;96359.75;;;7.15;100.00
706;BME280;21234;48.690;9.016;2023-03-20T02:26:05;96363.75;;;7.12;100.00
706;BME280;21234;48.690;9.016;2023-03-20T02:35:26;96363.00;;;7.05;100.00
706;BME280;21234;48.690;9.016;2023-03-20T02:38:18;96362.63;;;7.01;100.00
706;BME280;21234;48.690;9.016;2023-03-20T02:40:54;96359.53;;;6.98;100.00
706;BME280;21234;48.690;9.016;2023-03-20T02:43:27;96363.06;;;6.98;100.00
706;BME280;21234;48.690;9.016;2023-03-20T02:46:04;96367.03;;;6.96;100.00
706;BME280;21234;48.690;9.016;2023-03-20T02:48:38;96360.56;;;6.97;100.00
706;BME280;21234;48.690;9.016;2023-03-20T02:51:16;96359.53;;;6.98;100.00
706;BME280;21234;48.690;9.016;2023-03-20T02:53:51;96356.81;;;6.98;100.00
706;BME280;21234;48.690;9.016;2023-03-20T02:56:21;96357.19;;;7.01;100.00
706;BME280;21234;48.690;9.016;2023-03-20T02:58:56;96356.22;;;6.96;100.00
706;BME280;21234;48.690;9.016;2023-03-20T03:01:29;96359.38;;;6.93;100.00
706;BME280;21234;48.690;9.016;2023-03-20T03:04:00;96359.38;;;6.93;100.00
706;BME280;21234;48.690;9.016;2023-03-20T03:06:30;96361.41;;;6.97;100.00
706;BME280;21234;48.690;9.016;2023-03-20T03:09:01;96366.44;;;6.94;100.00
706;BME280;21234;48.690;9.016;2023-03-20T03:11:29;96367.19;;;7.01;100.00
706;BME280;21234;48.690;9.016;2023-03-20T03:13:58;96369.91;;;7.01;100.00
706;BME280;21234;48.690;9.016;2023-03-20T03:16:28;96366.97;;;7.02;100.00
706;BME280;21234;48.690;9.016;2023-03-20T03:19:02;96366.53;;;7.05;100.00
706;BME280;21234;48.690;9.016;2023-03-20T03:21:31;96363.81;;;7.05;100.00
706;BME280;21234;48.690;9.016;2023-03-20T03:24:00;96372.16;;;7.04;100.00
706;BME280;21234;48.690;9.016;2023-03-20T03:26:29;96376.50;;;7.05;100.00
706;BME280;21234;48.690;9.016;2023-03-20T03:28:59;96376.94;;;7.02;100.00
706;BME280;21234;48.690;9.016;2023-03-20T03:31:29;96380.31;;;6.97;100.00
706;BME280;21234;48.690;9.016;2023-03-20T03:33:58;96375.22;;;7.07;100.00
706;BME280;21234;48.690;9.016;2023-03-20T03:36:35;96378.53;;;7.10;100.00
706;BME280;21234;48.690;9.016;2023-03-20T03:39:13;96376.88;;;7.08;100.00
706;BME280;21234;48.690;9.016;2023-03-20T03:41:44;96384.00;;;7.03;100.00
706;BME280;21234;48.690;9.016;2023-03-20T03:44:14;96387.16;;;7.00;100.00
706;BME280;21234;48.690;9.016;2023-03-20T03:46:49;96383.47;;;6.94;100.00
706;BME280;21234;48.690;9.016;2023-03-20T03:49:19;96385.94;;;6.96;100.00
706;BME280;21234;48.690;9.016;2023-03-20T03:51:49;96387.59;;;6.97;100.00
706;BME280;21234;48.690;9.016;2023-03-20T03:54:23;96383.84;;;6.98;100.00
706;BME280;21234;48.690;9.016;2023-03-20T03:56:52;96388.53;;;7.09;100.00
706;BME280;21234;48.690;9.016;2023-03-20T03:59:23;96392.28;;;7.08;100.00
706;BME280;21234;48.690;9.016;2023-03-20T04:01:51;96393.09;;;7.08;100.00
706;BME280;21234;48.690;9.016;2023-03-20T04:04:19;96394.22;;;7.01;100.00
706;BME280;21234;48.690;9.016;2023-03-20T04:06:47;96395.88;;;7.02;100.00
706;BME280;21234;48.690;9.016;2023-03-20T04:09:14;96401.94;;;6.97;100.00
706;BME280;21234;48.690;9.016;2023-03-20T04:11:42;96416.13;;;6.93;100.00
706;BME280;21234;48.690;9.016;2023-03-20T04:14:10;96416.13;;;6.93;100.00
706;BME280;21234;48.690;9.016;2023-03-20T04:16:37;96410.66;;;6.99;100.00
706;BME280;21234;48.690;9.016;2023-03-20T04:19:04;96409.22;;;6.97;100.00
706;BME280;21234;48.690;9.016;2023-03-20T04:21:30;96402.16;;;6.96;100.00
706;BME280;21234;48.690;9.016;2023-03-20T04:23:58;96400.00;;;7.04;100.00
706;BME280;21234;48.690;9.016;2023-03-20T04:26:25;96401.28;;;7.02;100.00
706;BME280;21234;48.690;9.016;2023-03-20T04:28:53;96384.22;;;7.01;100.00
706;BME280;21234;48.690;9.016;2023-03-20T04:31:20;96384.00;;;7.03;100.00
706;BME280;21234;48.690;9.016;2023-03-20T04:33:47;96380.31;;;6.97;100.00
706;BME280;21234;48.690;9.016;2023-03-20T04:36:13;96376.50;;;7.05;100.00
706;BME280;21234;48.690;9.016;2023-03-20T04:38:40;96376.34;;;7.00;100.00
706;BME280;21234;48.690;9.016;2023-03-20T04:41:07;96368.25;;;7.00;100.00
706;BME280;21234;48.690;9.016;2023-03-20T04:43:34;96383.63;;;6.99;100.00
706;BME280;21234;48.690;9.016;2023-03-20T04:46:02;96378.28;;;6.93;100.00
706;BME280;21234;48.690;9.016;2023-03-20T04:48:28;96386.25;;;6.88;100.00
706;BME280;21234;48.690;9.016;2023-03-20T04:50:55;96388.88;;;6.94;100.00
706;BME280;21234;48.690;9.016;2023-03-20T04:53:22;96390.38;;;6.90;100.00
706;BME280;21234;48.690;9.016;2023-03-20T04:55:49;96381.81;;;6.93;100.00
706;BME280;21234;48.690;9.016;2023-03-20T04:58:16;96383.97;;;6.85;100.00
706;BME280;21234;48.690;9.016;2023-03-20T05:00:43;96388.78;;;6.83;100.00
706;BME280;21234;48.690;9.016;2023-03-20T05:03:12;96388.34;;;6.86;100.00
706;BME280;21234;48.690;9.016;2023-03-20T05:05:38;96396.88;;;6.83;100.00
706;BME280;21234;48.690;9.016;2023-03-20T05:08:05;96394.78;;;6.85;100.00
706;BME280;21234;48.690;9.016;2023-03-20T05:10:32;96398.53;;;6.84;100.00
706;BME280;21234;48.690;9.016;2023-03-20T05:12:59;96403.88;;;6.90;100.00
706;BME280;21234;48.690;9.016;2023-03-20T05:15:26;96405.75;;;6.90;100.00
706;BME280;21234;48.690;9.016;2023-03-20T05:17:52;96408.25;;;6.91;100.00
706;BME280;21234;48.690;9.016;2023-03-20T05:20:20;96413.38;;;6.99;100.00
706;BME280;21234;48.690;9.016;2023-03-20T05:22:48;96413.75;;;7.03;100.00
706;BME280;21234;48.690;9.016;2023-03-20T05:25:16;96418.69;;;7.06;100.00
706;BME280;21234;48.690;9.016;2023-03-20T05:27:43;96423.06;;;7.07;100.00
706;BME280;21234;48.690;9.016;2023-03-20T05:30:11;96417.22;;;7.10;100.00
706;BME280;21234;48.690;9.016;2023-03-20T05:32:38;96413.53;;;7.04;100.00
706;BME280;21234;48.690;9.016;2023-03-20T05:35:07;96409.53;;;7.07;100.00
706;BME280;21234;48.690;9.016;2023-03-20T05:37:36;96396.41;;;7.11;100.00
706;BME280;21234;48.690;9.016;2023-03-20T05:40:04;96409.16;;;7.03;100.00
706;BME280;21234;48.690;9.016;2023-03-20T05:42:30;96408.28;;;7.10;100.00
706;BME280;21234;48.690;9.016;2023-03-20T05:44:58;96414.50;;;7.10;100.00
706;BME280;21234;48.690;9.016;2023-03-20T05:47:25;96413.84;;;7.15;100.00
706;BME280;21234;48.690;9.016;2023-03-20T05:49:52;96413.84;;;7.15;100.00
706;BME280;21234;48.690;9.016;2023-03-20T05:52:19;96416.59;;;7.08;100.00
706;BME280;21234;48.690;9.016;2023-03-20T05:54:47;96419.31;;;7.08;100.00
706;BME280;21234;48.690;9.016;2023-03-20T05:57:14;96425.09;;;7.12;100.00
706;BME280;21234;48.690;9.016;2023-03-20T05:59:41;96432.75;;;7.15;100.00
706;BME280;21234;48.690;9.016;2023-03-20T06:02:08;96429.72;;;7.23;100.00
706;BME280;21234;48.690;9.016;2023-03-20T06:04:35;96438.81;;;7.28;100.00
706;BME280;21234;48.690;9.016;2023-03-20T06:07:02;96434.97;;;7.18;100.00
706;BME280;21234;48.690;9.016;2023-03-20T06:09:29;96436.13;;;7.28;100.00
706;BME280;21234;48.690;9.016;2023-03-20T06:11:57;96437.63;;;7.24;100.00
706;BME280;21234;48.690;9.016;2023-03-20T06:14:24;96440.25;;;7.31;100.00
706;BME280;21234;48.690;9.016;2023-03-20T06:16:51;96442.44;;;7.40;100.00
706;BME280;21234;48.690;9.016;2023-03-20T06:19:18;96440.84;;;7.51;100.00
706;BME280;21234;48.690;9.016;2023-03-20T06:21:46;96446.63;;;7.55;100.00
706;BME280;21234;48.690;9.016;2023-03-20T06:24:12;96439.25;;;7.62;100.00
706;BME280;21234;48.690;9.016;2023-03-20T06:26:39;96437.47;;;7.56;100.00
706;BME280;21234;48.690;9.016;2023-03-20T06:29:07;96446.09;;;7.64;100.00
706;BME280;21234;48.690;9.016;2023-03-20T06:31:34;96436.69;;;7.67;100.00
706;BME280;21234;48.690;9.016;2023-03-20T06:34:01;96435.13;;;7.78;100.00
706;BME280;21234;48.690;9.016;2023-03-20T06:36:28;96430.25;;;7.98;100.00
706;BME280;21234;48.690;9.016;2023-03-20T06:38:55;96427.50;;;8.28;98.61
706;BME280;21234;48.690;9.016;2023-03-20T06:41:22;96434.59;;;9.69;91.37
706;BME280;21234;48.690;9.016;2023-03-20T06:43:48;96427.06;;;10.44;84.59
706;BME280;21234;48.690;9.016;2023-03-20T06:46:16;96429.56;;;10.63;80.99
706;BME280;21234;48.690;9.016;2023-03-20T06:48:43;96428.44;;;11.14;77.43
706;BME280;21234;48.690;9.016;2023-03-20T06:51:10;96438.81;;;11.94;72.73
706;BME280;21234;48.690;9.016;2023-03-20T06:53:36;96438.16;;;12.95;69.09
706;BME280;21234;48.690;9.016;2023-03-20T06:56:04;96433.59;;;13.42;65.61
706;BME280;21234;48.690;9.016;2023-03-20T06:58:31;96433.84;;;12.99;66.82
706;BME280;21234;48.690;9.016;2023-03-20T07:00:57;96427.88;;;13.96;63.80
706;BME280;21234;48.690;9.016;2023-03-20T07:03:26;96440.13;;;12.72;66.90
706;BME280;21234;48.690;9.016;2023-03-20T07:05:52;96441.72;;;12.63;67.94
706;BME280;21234;48.690;9.016;2023-03-20T07:08:19;96450.06;;;13.53;65.25
706;BME280;21234;48.690;9.016;2023-03-20T07:10:46;96446.13;;;15.19;59.16
706;BME280;21234;48.690;9.016;2023-03-20T07:13:13;96445.03;;;15.05;58.18
706;BME280;21234;48.690;9.016;2023-03-20T07:15:39;96449.56;;;14.28;60.33
706;BME280;21234;48.690;9.016;2023-03-20T07:18:06;96461.28;;;13.19;64.06
706;BME280;21234;48.690;9.016;2023-03-20T07:20:34;96460.66;;;11.77;69.15
706;BME280;21234;48.690;9.016;2023-03-20T07:23:01;96466.22;;;10.77;75.59
706;BME280;21234;48.690;9.016;2023-03-20T07:25:27;96469.66;;;10.39;79.04
706;BME280;21234;48.690;9.016;2023-03-20T07:27:54;96478.81;;;9.81;81.48
706;BME280;21234;48.690;9.016;2023-03-20T07:30:21;96476.31;;;9.16;86.03
706;BME280;21234;48.690;9.016;2023-03-20T07:32:47;96476.09;;;9.06;88.76
706;BME280;21234;48.690;9.016;2023-03-20T07:35:14;96469.47;;;9.25;87.83
706;BME280;21234;48.690;9.016;2023-03-20T07:37:43;96477.69;;;9.54;88.38
706;BME280;21234;48.690;9.016;2023-03-20T07:40:10;96457.50;;;9.61;87.41
706;BME280;21234;48.690;9.016;2023-03-20T07:42:37;96466.41;;;9.85;85.26
706;BME280;21234;48.690;9.016;2023-03-20T07:45:05;96458.00;;;10.27;84.11
706;BME280;21234;48.690;9.016;2023-03-20T07:47:32;96461.03;;;11.09;77.34
706;BME280;21234;48.690;9.016;2023-03-20T07:49:58;96466.59;;;12.72;69.80
706;BME280;21234;48.690;9.016;2023-03-20T07:52:25;96466.13;;;14.01;64.48
706;BME280;21234;48.690;9.016;2023-03-20T07:54:53;96463.63;;;13.90;64.14
706;BME280;21234;48.690;9.016;2023-03-20T07:57:20;96472.06;;;12.72;67.53
706;BME280;21234;48.690;9.016;2023-03-20T07:59:46;96475.03;;;11.34;72.60
706;BME280;21234;48.690;9.016;2023-03-20T08:02:14;96471.50;;;10.67;78.68
706;BME280;21234;48.690;9.016;2023-03-20T08:04:41;96475.69;;;10.01;80.97
706;BME280;21234;48.690;9.016;2023-03-20T08:07:08;96479.84;;;9.92;83.28
706;BME280;21234;48.690;9.016;2023-03-20T08:09:35;96468.34;;;9.73;83.68
706;BME280;21234;48.690;9.016;2023-03-20T08:12:03;96472.13;;;9.72;84.92
706;BME280;21234;48.690;9.016;2023-03-20T08:14:30;96478.53;;;9.19;84.28
706;BME280;21234;48.690;9.016;2023-03-20T08:16:57;96479.25;;;9.26;85.11
706;BME280;21234;48.690;9.016;2023-03-20T08:19:24;96476.66;;;9.31;85.57
706;BME280;21234;48.690;9.016;2023-03-20T08:21:50;96475.47;;;9.27;85.31
706;BME280;21234;48.690;9.016;2023-03-20T08:24:17;96490.09;;;9.26;85.49
706;BME280;21234;48.690;9.016;2023-03-20T08:26:44;96486.69;;;9.31;86.70
706;BME280;21234;48.690;9.016;2023-03-20T08:29:13;96489.50;;;9.24;86.06
706;BME280;21234;48.690;9.016;2023-03-20T08:31:41;96492.59;;;9.28;85.85
706;BME280;21234;48.690;9.016;2023-03-20T08:34:08;96495.06;;;9.18;85.67
706;BME280;21234;48.690;9.016;2023-03-20T08:36:35;96491.03;;;9.20;86.26
706;BME280;21234;48.690;9.016;2023-03-20T08:39:02;96483.50;;;9.22;84.11
706;BME280;21234;48.690;9.016;2023-03-20T08:41:28;96483.16;;;9.30;85.08
706;BME280;21234;48.690;9.016;2023-03-20T08:43:55;96475.59;;;9.32;84.53
706;BME280;21234;48.690;9.016;2023-03-20T08:46:23;96479.38;;;9.20;82.55
706;BME280;21234;48.690;9.016;2023-03-20T08:48:50;96482.88;;;9.43;84.97
706;BME280;21234;48.690;9.016;2023-03-20T08:51:17;96466.72;;;9.60;83.80
706;BME280;21234;48.690;9.016;2023-03-20T08:53:43;96468.22;;;9.68;82.20
706;BME280;21234;48.690;9.016;2023-03-20T08:56:10;96477.69;;;9.65;79.90
706;BME280;21234;48.690;9.016;2023-03-20T08:58:37;96480.84;;;9.74;80.77
706;BME280;21234;48.690;9.016;2023-03-20T09:01:05;96481.56;;;9.69;80.28
706;BME280;21234;48.690;9.016;2023-03-20T09:03:34;96477.84;;;9.87;79.20
706;BME280;21234;48.690;9.016;2023-03-20T09:06:04;96485.16;;;9.87;78.49
706;BME280;21234;48.690;9.016;2023-03-20T09:08:31;96472.94;;;9.72;78.53
706;BME280;21234;48.690;9.016;2023-03-20T09:10:58;96472.06;;;9.84;79.38
706;BME280;21234;48.690;9.016;2023-03-20T09:13:25;96479.72;;;9.87;79.38
706;BME280;21234;48.690;9.016;2023-03-20T09:15:51;96487.75;;;9.93;80.27
706;BME280;21234;48.690;9.016;2023-03-20T09:18:19;96492.72;;;9.85;78.72
706;BME280;21234;48.690;9.016;2023-03-20T09:20:47;96497.34;;;9.84;78.02
706;BME280;21234;48.690;9.016;2023-03-20T09:23:15;96488.50;;;9.77;78.37
706;BME280;21234;48.690;9.016;2023-03-20T09:25:41;96496.44;;;9.55;79.56
706;BME280;21234;48.690;9.016;2023-03-20T09:28:08;96505.16;;;9.69;80.58
706;BME280;21234;48.690;9.016;2023-03-20T09:30:35;96491.56;;;9.81;78.68
706;BME280;21234;48.690;9.016;2023-03-20T09:33:02;96494.97;;;9.88;79.53
706;BME280;21234;48.690;9.016;2023-03-20T09:35:29;96489.19;;;9.84;78.69
706;BME280;21234;48.690;9.016;2023-03-20T09:37:57;96491.63;;;9.97;79.45
706;BME280;21234;48.690;9.016;2023-03-20T09:40:26;96494.63;;;9.84;78.61
706;BME280;21234;48.690;9.016;2023-03-20T09:43:01;96492.09;;;10.06;79.17
706;BME280;21234;48.690;9.016;2023-03-20T09:45:41;96494.06;;;10.22;77.48
706;BME280;21234;48.690;9.016;2023-03-20T09:48:14;96491.13;;;10.40;79.16
706;BME280;21234;48.690;9.016;2023-03-20T09:50:48;96490.28;;;10.11;75.95
706;BME280;21234;48.690;9.016;2023-03-20T09:53:25;96488.38;;;10.12;76.17
706;BME280;21234;48.690;9.016;2023-03-20T09:55:54;96494.28;;;10.21;77.97
706;BME280;21234;48.690;9.016;2023-03-20T09:58:23;96485.53;;;10.19;76.30
706;BME280;21234;48.690;9.016;2023-03-20T10:00:50;96487.75;;;10.33;77.05
706;BME280;21234;48.690;9.016;2023-03-20T10:03:20;96488.59;;;10.51;74.57
706;BME280;21234;48.690;9.016;2023-03-20T10:05:53;96496.81;;;10.67;73.75
706;BME280;21234;48.690;9.016;2023-03-20T10:08:27;96490.44;;;10.78;71.94
706;BME280;21234;48.690;9.016;2023-03-20T10:11:03;96496.47;;;10.81;73.39
706;BME280;21234;48.690;9.016;2023-03-20T10:13:50;96491.53;;;11.11;70.86
706;BME280;21234;48.690;9.016;2023-03-20T10:16:34;96497.81;;;10.95;69.32
706;BME280;21234;48.690;9.016;2023-03-20T10:19:09;96495.09;;;10.95;71.01
706;BME280;21234;48.690;9.016;2023-03-20T10:21:42;96496.31;;;10.87;70.60
706;BME280;21234;48.690;9.016;2023-03-20T10:24:15;96493.59;;;10.70;69.56
706;BME280;21234;48.690;9.016;2023-03-20T10:26:45;96494.13;;;10.56;69.91
706;BME280;21234;48.690;9.016;2023-03-20T10:29:19;96497.97;;;10.43;71.48
706;BME280;21234;48.690;9.016;2023-03-20T10:31:53;96500.38;;;10.39;73.14
706;BME280;21234;48.690;9.016;2023-03-20T10:34:35;96499.78;;;10.37;75.57
706;BME280;21234;48.690;9.016;2023-03-20T10:37:17;96499.59;;;10.27;73.49
706;BME280;21234;48.690;9.016;2023-03-20T10:39:53;96495.56;;;10.30;74.34
706;BME280;21234;48.690;9.016;2023-03-20T10:42:26;96499.00;;;10.14;71.96
706;BME280;21234;48.690;9.016;2023-03-20T10:44:57;96493.56;;;10.14;73.39
706;BME280;21234;48.690;9.016;2023-03-20T10:47:27;96492.28;;;10.16;73.67
706;BME280;21234;48.690;9.016;2023-03-20T10:49:58;96486.00;;;10.16;72.73
706;BME280;21234;48.690;9.016;2023-03-20T10:52:28;96485.31;;;10.20;72.21
706;BME280;21234;48.690;9.016;2023-03-20T10:55:00;96484.34;;;10.15;71.67
706;BME280;21234;48.690;9.016;2023-03-20T10:57:32;96483.66;;;10.19;71.34
706;BME280;21234;48.690;9.016;2023-03-20T10:59:59;96484.00;;;10.23;71.57
706;BME280;21234;48.690;9.016;2023-03-20T11:02:27;96474.56;;;10.14;70.30
706;BME280;21234;48.690;9.016;2023-03-20T11:04:55;96481.06;;;10.13;71.36
706;BME280;21234;48.690;9.016;2023-03-20T11:07:25;96476.94;;;10.22;72.17
706;BME280;21234;48.690;9.016;2023-03-20T11:10:11;96484.25;;;10.21;71.89
706;BME280;21234;48.690;9.016;2023-03-20T11:12:39;96480.94;;;10.19;71.15
706;BME280;21234;48.690;9.016;2023-03-20T11:15:18;96480.09;;;10.19;71.57
706;BME280;21234;48.690;9.016;2023-03-20T11:17:53;96481.16;;;10.18;70.96
706;BME280;21234;48.690;9.016;2023-03-20T11:20:21;96472.06;;;10.24;71.52
706;BME280;21234;48.690;9.016;2023-03-20T11:22:49;96475.34;;;10.37;71.49
706;BME280;21234;48.690;9.016;2023-03-20T11:25:28;96470.31;;;10.46;70.16
706;BME280;21234;48.690;9.016;2023-03-20T11:27:57;96474.56;;;10.70;70.51
706;BME280;21234;48.690;9.016;2023-03-20T11:30:24;96480.81;;;10.88;67.62
706;BME280;21234;48.690;9.016;2023-03-20T11:32:54;96478.16;;;11.26;68.57
706;BME280;21234;48.690;9.016;2023-03-20T11:35:28;96475.50;;;11.70;67.13
706;BME280;21234;48.690;9.016;2023-03-20T11:38:08;96478.44;;;12.29;64.72
706;BME280;21234;48.690;9.016;2023-03-20T11:40:38;96469.66;;;12.49;61.69
706;BME280;21234;48.690;9.016;2023-03-20T11:43:10;96465.69;;;12.61;61.23
706;BME280;21234;48.690;9.016;2023-03-20T11:45:39;96464.69;;;12.72;61.83
706;BME280;21234;48.690;9.016;2023-03-20T11:48:14;96466.66;;;12.50;61.24
706;BME280;21234;48.690;9.016;2023-03-20T11:50:45;96462.88;;;12.51;62.22
706;BME280;21234;48.690;9.016;2023-03-20T11:53:22;96465.78;;;12.18;62.27
706;BME280;21234;48.690;9.016;2023-03-20T11:56:07;96458.09;;;12.15;64.05
706;BME280;21234;48.690;9.016;2023-03-20T11:58:38;96455.31;;;12.09;65.55
706;BME280;21234;48.690;9.016;2023-03-20T12:01:12;96460.53;;;12.11;66.67
706;BME280;21234;48.690;9.016;2023-03-20T12:03:45;96461.75;;;11.98;65.65
706;BME280;21234;48.690;9.016;2023-03-20T12:06:18;96464.34;;;11.88;67.59
706;BME280;21234;48.690;9.016;2023-03-20T12:08:49;96459.16;;;11.87;67.73
706;BME280;21234;48.690;9.016;2023-03-20T12:11:35;96460.53;;;11.89;66.30
706;BME280;21234;48.690;9.016;2023-03-20T12:14:07;96452.69;;;11.93;65.59
706;BME280;21234;48.690;9.016;2023-03-20T12:16:38;96454.75;;;11.64;65.20
706;BME280;21234;48.690;9.016;2023-03-20T12:19:11;96462.38;;;11.45;66.62
706;BME280;21234;48.690;9.016;2023-03-20T12:21:45;96456.09;;;11.44;66.69
706;BME280;21234;48.690;9.016;2023-03-20T12:24:20;96454.81;;;11.30;66.92
706;BME280;21234;48.690;9.016;2023-03-20T12:26:57;96448.56;;;11.30;68.02
706;BME280;21234;48.690;9.016;2023-03-20T12:29:30;96446.50;;;11.37;68.83
706;BME280;21234;48.690;9.016;2023-03-20T12:32:01;96445.88;;;11.52;68.73
706;BME280;21234;48.690;9.016;2023-03-20T12:34:33;96445.13;;;11.56;69.23
706;BME280;21234;48.690;9.016;2023-03-20T12:37:02;96450.56;;;11.56;69.06
706;BME280;21234;48.690;9.016;2023-03-20T12:39:32;96450.53;;;11.34;66.52
706;BME280;21234;48.690;9.016;2023-03-20T12:42:08;96441.88;;;11.21;65.85
706;BME280;21234;48.690;9.016;2023-03-20T12:44:44;96436.13;;;11.17;67.09
706;BME280;21234;48.690;9.016;2023-03-20T12:47:42;96438.00;;;11.17;67.44
706;BME280;21234;48.690;9.016;2023-03-20T12:50:21;96440.53;;;11.40;68.00
706;BME280;21234;48.690;9.016;2023-03-20T12:52:55;96434.50;;;11.38;67.30
706;BME280;21234;48.690;9.016;2023-03-20T12:55:37;96435.88;;;11.57;66.71
706;BME280;21234;48.690;9.016;2023-03-20T12:58:19;96433.25;;;11.45;65.77
706;BME280;21234;48.690;9.016;2023-03-20T13:00:53;96429.41;;;11.63;68.53
706;BME280;21234;48.690;9.016;2023-03-20T13:06:14;96425.97;;;11.73;68.61
706;BME280;21234;48.690;9.016;2023-03-20T13:09:02;96426.56;;;11.75;65.35
706;BME280;21234;48.690;9.016;2023-03-20T13:11:37;96421.56;;;11.67;63.32
706;BME280;21234;48.690;9.016;2023-03-20T13:14:13;96419.84;;;11.61;64.78
706;BME280;21234;48.690;9.016;2023-03-20T13:16:50;96421.59;;;11.50;63.06
706;BME280;21234;48.690;9.016;2023-03-20T13:19:25;96417.25;;;11.49;63.35
706;BME280;21234;48.690;9.016;2023-03-20T13:21:55;96416.75;;;11.52;62.51
706;BME280;21234;48.690;9.016;2023-03-20T13:24:31;96413.94;;;11.47;60.92
706;BME280;21234;48.690;9.016;2023-03-20T13:27:05;96411.22;;;11.47;60.77
706;BME280;21234;48.690;9.016;2023-03-20T13:29:42;96408.06;;;11.55;62.25
706;BME280;21234;48.690;9.016;2023-03-20T13:32:20;96409.47;;;11.58;60.57
706;BME280;21234;48.690;9.016;2023-03-20T13:34:59;96413.00;;;11.58;60.18
706;BME280;21234;48.690;9.016;2023-03-20T13:37:33;96401.56;;;11.78;59.55
706;BME280;21234;48.690;9.016;2023-03-20T13:40:11;96395.03;;;11.79;57.94
706;BME280;21234;48.690;9.016;2023-03-20T13:42:44;96398.78;;;11.95;59.01
706;BME280;21234;48.690;9.016;2023-03-20T13:45:25;96397.84;;;12.38;57.06
706;BME280;21234;48.690;9.016;2023-03-20T13:47:53;96394.44;;;12.53;55.71
706;BME280;21234;48.690;9.016;2023-03-20T13:50:32;96394.28;;;12.64;58.19